Terminal Aerodrome Forecast
Issued by NWS Denver/Boulder, CO

Home | Current Version | Previous Version | Text Only | Print | Product List | Glossary On
Versions: 1 2 3 4 5 6 7 8 9 10 11 12 13 14 15 16 17 18 19 20 21 22 23 24 25 26 27 28 29 30 31 32 33 34
000
FTUS45 KBOU 240908 AAA
TAFDEN
TAF AMD
KDEN 240908Z 2409/2512 VRB03KT P6SM BKN006 OVC012
     FM241800 02008KT P6SM VCSH BKN008 OVC012 PROB30 2500/2504 4SM
      -SHRA BR BKN004
     FM250400 04004KT 4SM BR OVC004=

USA.gov is the U.S. government's official web portal to all federal, state and local government web resources and services.